createdAt,value
2023-03-12T00:00:10.865Z,2.60
2023-03-12T00:02:38.692Z,2.60
2023-03-12T00:05:06.578Z,2.50
2023-03-12T00:07:33.753Z,2.50
2023-03-12T00:10:01.137Z,2.40
2023-03-12T00:12:28.654Z,2.70
2023-03-12T00:14:58.547Z,2.60
2023-03-12T00:17:26.323Z,2.00
2023-03-12T00:19:54.165Z,2.50
2023-03-12T00:22:25.762Z,2.50
2023-03-12T00:24:54.465Z,2.60
2023-03-12T00:27:22.420Z,2.60
2023-03-12T00:29:50.254Z,2.70
2023-03-12T00:32:17.578Z,2.50
2023-03-12T00:34:50.215Z,2.60
2023-03-12T00:37:17.297Z,2.50
2023-03-12T00:39:44.464Z,2.40
2023-03-12T00:42:11.668Z,2.40
2023-03-12T00:44:39.009Z,2.50
2023-03-12T00:47:06.435Z,2.40
2023-03-12T00:49:33.947Z,2.40
2023-03-12T00:52:01.239Z,2.00
2023-03-12T00:54:28.442Z,2.50
2023-03-12T00:56:55.638Z,2.40
2023-03-12T00:59:23.006Z,2.40
2023-03-12T01:01:50.404Z,2.30
2023-03-12T01:04:17.953Z,2.30
2023-03-12T01:06:45.496Z,2.30
2023-03-12T01:09:12.791Z,2.30
2023-03-12T01:11:39.983Z,2.20
2023-03-12T01:14:08.666Z,2.20
2023-03-12T01:16:36.040Z,2.20
2023-03-12T01:19:04.518Z,2.20
2023-03-12T01:21:34.269Z,1.00
2023-03-12T01:24:01.863Z,2.20
2023-03-12T01:26:29.084Z,2.10
2023-03-12T01:28:56.309Z,2.10
2023-03-12T01:31:23.624Z,2.20
2023-03-12T01:33:52.382Z,1.10
2023-03-12T01:36:25.688Z,2.20
2023-03-12T01:38:55.007Z,2.20
2023-03-12T01:41:24.443Z,2.10
2023-03-12T01:43:52.548Z,2.10
2023-03-12T01:46:35.238Z,1.90
2023-03-12T01:49:27.261Z,2.20
2023-03-12T01:52:06.205Z,2.00
2023-03-12T01:55:09.795Z,2.20
2023-03-12T01:57:52.359Z,2.10
2023-03-12T02:00:26.535Z,2.50
2023-03-12T02:03:02.343Z,0.80
2023-03-12T02:05:43.750Z,1.70
2023-03-12T02:08:13.386Z,2.00
2023-03-12T02:10:41.356Z,1.20
2023-03-12T02:13:10.153Z,1.20
2023-03-12T02:15:38.391Z,1.90
2023-03-12T02:18:07.909Z,1.90
2023-03-12T02:20:45.844Z,1.50
2023-03-12T02:23:35.614Z,1.80
2023-03-12T02:26:05.846Z,1.80
2023-03-12T02:28:42.489Z,0.80
2023-03-12T02:31:15.971Z,1.80
2023-03-12T02:33:43.316Z,1.70
2023-03-12T02:36:10.677Z,1.50
2023-03-12T02:38:47.401Z,1.70
2023-03-12T02:41:29.292Z,1.70
2023-03-12T02:44:26.866Z,1.70
2023-03-12T02:46:57.565Z,1.60
2023-03-12T02:49:28.910Z,1.70
2023-03-12T02:51:56.998Z,1.80
2023-03-12T02:54:25.377Z,1.80
2023-03-12T02:56:53.144Z,1.70
2023-03-12T02:59:22.017Z,1.40
2023-03-12T03:01:58.352Z,1.50
2023-03-12T03:04:27.037Z,2.20
2023-03-12T03:06:54.485Z,1.60
2023-03-12T03:09:22.591Z,1.60
2023-03-12T03:11:51.120Z,0.60
2023-03-12T03:14:19.462Z,1.60
2023-03-12T03:16:49.612Z,0.40
2023-03-12T03:19:16.908Z,0.90
2023-03-12T03:21:44.626Z,0.40
2023-03-12T03:24:11.962Z,1.30
2023-03-12T03:26:39.352Z,1.30
2023-03-12T03:29:06.628Z,1.40
2023-03-12T03:31:33.902Z,1.40
2023-03-12T03:34:01.643Z,1.30
2023-03-12T03:36:29.267Z,1.30
2023-03-12T03:39:10.594Z,1.20
2023-03-12T03:41:38.001Z,1.30
2023-03-12T03:44:07.008Z,1.10
2023-03-12T03:46:36.574Z,0.90
2023-03-12T03:49:07.080Z,1.30
2023-03-12T03:51:34.525Z,1.20
2023-03-12T03:54:06.603Z,1.20
2023-03-12T03:56:33.719Z,1.20
2023-03-12T03:59:04.167Z,1.30
2023-03-12T04:01:33.425Z,0.70
2023-03-12T04:04:01.938Z,1.30
2023-03-12T04:06:31.512Z,1.20
2023-03-12T04:08:59.574Z,1.20
2023-03-12T04:11:28.592Z,1.30
2023-03-12T04:13:58.346Z,1.30
2023-03-12T04:16:29.133Z,1.20
2023-03-12T04:18:56.336Z,1.20
2023-03-12T04:21:24.761Z,1.20
2023-03-12T04:23:52.076Z,1.10
2023-03-12T04:26:22.190Z,1.20
2023-03-12T04:28:49.557Z,0.80
2023-03-12T04:31:16.755Z,1.10
2023-03-12T04:33:49.748Z,0.90
2023-03-12T04:36:17.910Z,0.90
2023-03-12T04:38:50.634Z,0.70
2023-03-12T04:41:21.416Z,-0.40
2023-03-12T04:43:53.630Z,0.70
2023-03-12T04:46:21.844Z,0.50
2023-03-12T04:48:49.262Z,0.50
2023-03-12T04:51:16.756Z,0.50
2023-03-12T04:53:44.510Z,0.60
2023-03-12T04:56:13.778Z,0.50
2023-03-12T04:58:42.275Z,0.50
2023-03-12T05:01:32.188Z,0.40
2023-03-12T05:04:00.251Z,0.50
2023-03-12T05:06:27.933Z,0.60
2023-03-12T05:08:56.345Z,0.60
2023-03-12T05:11:24.855Z,0.70
2023-03-12T05:13:52.259Z,0.70
2023-03-12T05:16:19.721Z,0.60
2023-03-12T05:18:47.780Z,0.60
2023-03-12T05:21:21.218Z,-0.10
2023-03-12T05:23:52.832Z,0.50
2023-03-12T05:26:27.412Z,0.60
2023-03-12T05:29:01.880Z,0.50
2023-03-12T05:31:33.166Z,0.60
2023-03-12T05:34:01.842Z,0.50
2023-03-12T05:36:29.544Z,0.60
2023-03-12T05:38:56.816Z,0.60
2023-03-12T05:41:29.310Z,0.30
2023-03-12T05:44:00.902Z,0.70
2023-03-12T05:46:29.632Z,0.70
2023-03-12T05:48:58.346Z,0.80
2023-03-12T05:51:25.852Z,0.80
2023-03-12T05:53:53.207Z,0.80
2023-03-12T05:56:20.511Z,0.80
2023-03-12T05:58:50.059Z,0.90
2023-03-12T06:01:27.791Z,0.90
2023-03-12T06:03:57.600Z,0.90
2023-03-12T06:06:26.044Z,1.00
2023-03-12T06:08:54.136Z,1.00
2023-03-12T06:11:21.374Z,1.10
2023-03-12T06:13:48.702Z,1.10
2023-03-12T06:16:20.201Z,1.30
2023-03-12T06:18:48.328Z,1.30
2023-03-12T06:21:19.871Z,1.40
2023-03-12T06:23:48.846Z,1.50
2023-03-12T06:26:21.626Z,0.40
2023-03-12T06:28:50.212Z,1.60
2023-03-12T06:31:18.930Z,1.70
2023-03-12T06:33:46.076Z,1.70
2023-03-12T06:36:13.756Z,1.90
2023-03-12T06:38:41.364Z,1.90
2023-03-12T06:41:14.567Z,2.00
2023-03-12T06:43:42.107Z,2.10
2023-03-12T06:46:13.397Z,2.20
2023-03-12T06:48:41.744Z,2.40
2023-03-12T06:51:11.250Z,2.50
2023-03-12T06:53:42.109Z,2.50
2023-03-12T06:56:10.685Z,3.00
2023-03-12T06:58:41.070Z,2.50
2023-03-12T07:01:08.837Z,2.80
2023-03-12T07:03:36.438Z,2.90
2023-03-12T07:06:04.276Z,2.60
2023-03-12T07:08:31.981Z,3.20
2023-03-12T07:11:01.711Z,3.00
2023-03-12T07:13:30.959Z,3.20
2023-03-12T07:15:58.176Z,3.20
2023-03-12T07:18:25.665Z,3.30
2023-03-12T07:20:53.576Z,3.30
2023-03-12T07:23:21.857Z,3.40
2023-03-12T07:25:49.501Z,3.40
2023-03-12T07:28:17.779Z,3.50
2023-03-12T07:30:50.508Z,3.70
2023-03-12T07:33:20.571Z,3.50
2023-03-12T07:35:51.558Z,3.60
2023-03-12T07:38:19.698Z,3.70
2023-03-12T07:40:52.016Z,3.90
2023-03-12T07:43:21.561Z,3.80
2023-03-12T07:45:51.696Z,3.90
2023-03-12T07:48:21.769Z,4.20
2023-03-12T07:50:49.278Z,4.20
2023-03-12T07:53:17.092Z,4.40
2023-03-12T07:55:46.639Z,4.30
2023-03-12T07:58:15.913Z,4.30
2023-03-12T08:00:44.277Z,4.40
2023-03-12T08:03:12.737Z,4.50
2023-03-12T08:05:40.410Z,4.30
2023-03-12T08:08:08.667Z,4.50
2023-03-12T08:10:37.220Z,4.60
2023-03-12T08:13:04.821Z,4.40
2023-03-12T08:15:32.313Z,4.90
2023-03-12T08:17:59.906Z,4.50
2023-03-12T08:20:27.483Z,4.50
2023-03-12T08:22:54.939Z,4.60
2023-03-12T08:25:24.824Z,4.80
2023-03-12T08:27:52.372Z,4.70
2023-03-12T08:30:20.385Z,4.90
2023-03-12T08:32:47.826Z,5.50
2023-03-12T08:35:15.422Z,5.00
2023-03-12T08:37:42.924Z,5.10
2023-03-12T08:40:13.713Z,5.10
2023-03-12T08:42:42.097Z,5.10
2023-03-12T08:45:10.921Z,5.20
2023-03-12T08:47:41.982Z,5.20
2023-03-12T08:50:11.853Z,5.00
2023-03-12T08:52:40.128Z,5.30
2023-03-12T08:55:07.898Z,5.20
2023-03-12T08:57:35.358Z,5.30
2023-03-12T09:00:06.132Z,5.50
2023-03-12T09:02:33.633Z,4.60
2023-03-12T09:05:01.136Z,5.10
2023-03-12T09:07:28.720Z,5.50
2023-03-12T09:09:56.257Z,5.50
2023-03-12T09:12:26.598Z,5.60
2023-03-12T09:15:05.179Z,5.50
2023-03-12T09:17:33.105Z,5.40
2023-03-12T09:20:01.017Z,5.70
2023-03-12T09:22:30.641Z,5.80
2023-03-12T09:24:58.355Z,5.80
2023-03-12T09:27:26.082Z,5.80
2023-03-12T09:30:00.534Z,5.80
2023-03-12T09:32:29.207Z,5.90
2023-03-12T09:34:56.780Z,6.00
2023-03-12T09:37:24.580Z,6.00
2023-03-12T09:39:53.254Z,6.00
2023-03-12T09:42:37.365Z,6.60
2023-03-12T09:45:07.792Z,6.10
2023-03-12T09:47:51.673Z,6.30
2023-03-12T09:50:29.318Z,6.30
2023-03-12T09:53:18.960Z,6.20
2023-03-12T09:55:52.669Z,6.20
2023-03-12T09:58:26.903Z,5.90
2023-03-12T10:01:10.520Z,6.50
2023-03-12T10:03:50.038Z,6.40
2023-03-12T10:06:21.448Z,6.70
2023-03-12T10:09:21.799Z,6.70
2023-03-12T10:12:17.469Z,6.80
2023-03-12T10:15:06.129Z,6.50
2023-03-12T10:18:04.312Z,6.20
2023-03-12T10:20:59.453Z,5.60
2023-03-12T10:23:34.605Z,6.40
2023-03-12T10:26:15.241Z,6.80
2023-03-12T10:28:53.867Z,6.90
2023-03-12T10:31:28.483Z,7.00
2023-03-12T10:34:01.031Z,6.60
2023-03-12T10:36:34.901Z,7.40
2023-03-12T10:39:02.958Z,7.60
2023-03-12T10:41:34.659Z,7.60
2023-03-12T10:44:09.153Z,7.70
2023-03-12T10:47:18.198Z,7.90
2023-03-12T10:49:50.597Z,7.60
2023-03-12T10:52:22.642Z,7.60
2023-03-12T10:54:53.101Z,8.10
2023-03-12T10:57:24.029Z,7.90
2023-03-12T10:59:53.888Z,7.70
2023-03-12T11:02:47.880Z,8.00
2023-03-12T11:05:27.374Z,7.90
2023-03-12T11:07:58.030Z,7.60
2023-03-12T11:10:37.716Z,7.40
2023-03-12T11:13:23.320Z,8.00
2023-03-12T11:15:52.957Z,8.20
2023-03-12T11:18:28.096Z,7.90
2023-03-12T11:21:19.030Z,7.90
2023-03-12T11:23:56.897Z,7.90
2023-03-12T11:26:29.227Z,8.40
2023-03-12T11:29:16.668Z,8.60
2023-03-12T11:32:18.818Z,8.60
2023-03-12T11:34:49.696Z,8.60
2023-03-12T11:37:40.460Z,8.70
2023-03-12T11:40:26.800Z,8.60
2023-03-12T11:43:41.696Z,8.40
2023-03-12T11:46:32.875Z,8.50
2023-03-12T11:49:12.284Z,8.40
2023-03-12T11:52:01.580Z,8.50
2023-03-12T11:54:48.672Z,8.70
2023-03-12T11:57:48.754Z,9.00
2023-03-12T12:00:25.850Z,8.60
2023-03-12T12:03:40.003Z,8.60
2023-03-12T12:06:45.307Z,8.70
2023-03-12T12:09:32.393Z,8.80
2023-03-12T12:12:25.501Z,9.00
2023-03-12T12:15:03.865Z,9.40
2023-03-12T12:17:49.679Z,9.20
2023-03-12T12:20:29.548Z,8.20
2023-03-12T12:23:02.741Z,9.30
2023-03-12T12:25:36.264Z,10.00
2023-03-12T12:28:22.218Z,9.30
2023-03-12T12:31:28.863Z,9.40
2023-03-12T12:34:06.102Z,9.50
2023-03-12T12:36:35.780Z,9.50
2023-03-12T12:39:29.688Z,9.30
2023-03-12T12:42:02.391Z,9.40
2023-03-12T12:44:50.545Z,9.40
2023-03-12T12:47:22.899Z,9.40
2023-03-12T12:49:57.659Z,9.50
2023-03-12T12:52:28.929Z,9.60
2023-03-12T12:55:15.884Z,9.50
2023-03-12T12:57:45.328Z,9.30
2023-03-12T13:00:37.562Z,9.30
2023-03-12T13:03:05.340Z,9.60
2023-03-12T13:05:50.497Z,9.40
2023-03-12T13:08:48.199Z,9.30
2023-03-12T13:11:20.338Z,9.50
2023-03-12T13:14:12.575Z,9.80
2023-03-12T13:16:43.690Z,9.90
2023-03-12T13:19:14.221Z,9.70
2023-03-12T13:22:00.447Z,9.60
2023-03-12T13:25:05.687Z,9.30
2023-03-12T13:27:45.459Z,9.30
2023-03-12T13:30:34.895Z,9.50
2023-03-12T13:33:06.464Z,9.50
2023-03-12T13:35:41.289Z,9.60
2023-03-12T13:38:18.553Z,9.30
2023-03-12T13:40:54.718Z,9.60
2023-03-12T13:43:52.365Z,9.40
2023-03-12T13:46:34.063Z,9.40
2023-03-12T13:49:11.464Z,9.00
2023-03-12T13:51:52.548Z,9.10
2023-03-12T13:54:21.056Z,9.10
2023-03-12T13:57:03.950Z,8.30
2023-03-12T13:59:32.534Z,9.10
2023-03-12T14:02:15.072Z,9.10
2023-03-12T14:04:43.053Z,9.20
2023-03-12T14:07:33.078Z,9.30
2023-03-12T14:10:30.125Z,8.20
2023-03-12T14:13:56.232Z,9.20
2023-03-12T14:16:36.792Z,9.30
2023-03-12T14:19:06.380Z,9.20
2023-03-12T14:21:40.043Z,9.20
2023-03-12T14:24:13.791Z,9.20
2023-03-12T14:26:41.483Z,9.00
2023-03-12T14:29:15.637Z,8.90
2023-03-12T14:31:43.998Z,8.90
2023-03-12T14:34:25.077Z,9.00
2023-03-12T14:37:11.520Z,9.00
2023-03-12T14:39:50.998Z,8.30
2023-03-12T14:42:27.487Z,9.10
2023-03-12T14:45:13.367Z,8.10
2023-03-12T14:47:56.273Z,9.00
2023-03-12T14:50:29.598Z,9.00
2023-03-12T14:53:19.609Z,8.90
2023-03-12T14:55:49.817Z,9.00
2023-03-12T14:58:20.806Z,9.00
2023-03-12T15:01:02.783Z,9.00
2023-03-12T15:03:32.491Z,9.10
2023-03-12T15:06:00.875Z,9.20
2023-03-12T15:08:49.324Z,8.90
2023-03-12T15:11:23.375Z,8.50
2023-03-12T15:13:55.008Z,8.60
2023-03-12T15:16:23.628Z,8.60
2023-03-12T15:18:51.905Z,8.50
2023-03-12T15:21:23.336Z,8.50
2023-03-12T15:23:53.496Z,8.40
2023-03-12T15:26:21.703Z,8.40
2023-03-12T15:29:27.725Z,8.30
2023-03-12T15:32:16.250Z,8.20
2023-03-12T15:34:44.445Z,8.30
2023-03-12T15:37:33.173Z,8.20
2023-03-12T15:40:06.553Z,8.20
2023-03-12T15:42:45.227Z,8.10
2023-03-12T15:45:24.613Z,8.00
2023-03-12T15:47:54.966Z,7.80
2023-03-12T15:50:31.313Z,7.80
2023-03-12T15:53:06.216Z,7.90
2023-03-12T15:55:37.802Z,7.70
2023-03-12T15:58:35.671Z,7.70
2023-03-12T16:01:12.900Z,7.50
2023-03-12T16:03:48.393Z,7.50
2023-03-12T16:06:20.366Z,7.60
2023-03-12T16:08:53.712Z,7.30
2023-03-12T16:11:31.109Z,7.30
2023-03-12T16:14:16.261Z,7.00
2023-03-12T16:16:44.201Z,7.10
2023-03-12T16:19:20.390Z,6.90
2023-03-12T16:21:48.805Z,6.90
2023-03-12T16:24:17.736Z,7.00
2023-03-12T16:26:55.433Z,6.90
2023-03-12T16:29:28.810Z,6.80
2023-03-12T16:31:57.542Z,6.80
2023-03-12T16:34:26.094Z,6.70
2023-03-12T16:36:54.796Z,6.60
2023-03-12T16:39:24.167Z,6.60
2023-03-12T16:41:52.389Z,6.60
2023-03-12T16:44:22.434Z,6.30
2023-03-12T16:46:50.753Z,6.10
2023-03-12T16:49:21.649Z,6.40
2023-03-12T16:51:50.186Z,6.40
2023-03-12T16:54:18.515Z,6.30
2023-03-12T16:56:49.046Z,6.30
2023-03-12T16:59:38.543Z,6.40
2023-03-12T17:02:16.836Z,6.10
2023-03-12T17:04:45.551Z,6.10
2023-03-12T17:07:13.292Z,6.00
2023-03-12T17:09:41.471Z,5.90
2023-03-12T17:12:32.503Z,5.80
2023-03-12T17:15:02.457Z,5.80
2023-03-12T17:17:31.714Z,5.70
2023-03-12T17:20:01.209Z,5.70
2023-03-12T17:22:29.472Z,4.50
2023-03-12T17:24:57.796Z,5.60
2023-03-12T17:27:28.001Z,5.60
2023-03-12T17:29:56.306Z,5.60
2023-03-12T17:32:25.811Z,5.30
2023-03-12T17:35:00.318Z,5.00
2023-03-12T17:37:28.135Z,5.40
2023-03-12T17:39:56.265Z,5.30
2023-03-12T17:42:27.278Z,5.30
2023-03-12T17:44:55.046Z,5.20
2023-03-12T17:47:23.564Z,5.30
2023-03-12T17:49:51.985Z,5.20
2023-03-12T17:52:20.122Z,5.10
2023-03-12T17:54:47.880Z,5.10
2023-03-12T17:57:15.876Z,5.10
2023-03-12T17:59:43.913Z,5.00
2023-03-12T18:02:14.819Z,4.90
2023-03-12T18:04:43.820Z,4.90
2023-03-12T18:07:12.882Z,4.90
2023-03-12T18:09:40.648Z,4.90
2023-03-12T18:12:11.865Z,4.90
2023-03-12T18:14:40.298Z,4.80
2023-03-12T18:17:08.774Z,3.70
2023-03-12T18:19:37.571Z,4.70
2023-03-12T18:22:07.250Z,4.70
2023-03-12T18:24:36.383Z,4.70
2023-03-12T18:27:04.376Z,4.60
2023-03-12T18:29:37.907Z,4.50
2023-03-12T18:32:08.116Z,4.50
2023-03-12T18:34:38.140Z,3.40
2023-03-12T18:37:07.259Z,4.40
2023-03-12T18:39:36.516Z,4.40
2023-03-12T18:42:04.885Z,4.30
2023-03-12T18:44:36.036Z,4.30
2023-03-12T18:47:04.082Z,4.30
2023-03-12T18:49:32.357Z,4.20
2023-03-12T18:52:01.370Z,2.90
2023-03-12T18:54:30.082Z,4.10
2023-03-12T18:56:59.808Z,3.70
2023-03-12T18:59:30.787Z,4.10
2023-03-12T19:02:01.929Z,5.10
2023-03-12T19:04:32.134Z,4.00
2023-03-12T19:07:01.285Z,3.90
2023-03-12T19:09:30.011Z,3.90
2023-03-12T19:12:01.186Z,3.80
2023-03-12T19:14:30.095Z,3.80
2023-03-12T19:16:58.547Z,3.80
2023-03-12T19:19:26.546Z,3.80
2023-03-12T19:21:54.830Z,3.70
2023-03-12T19:24:23.365Z,3.70
2023-03-12T19:26:51.779Z,3.60
2023-03-12T19:29:20.248Z,3.90
2023-03-12T19:31:47.945Z,3.60
2023-03-12T19:34:18.917Z,3.60
2023-03-12T19:36:47.704Z,3.50
2023-03-12T19:39:21.599Z,3.60
2023-03-12T19:41:52.149Z,3.60
2023-03-12T19:44:21.217Z,3.50
2023-03-12T19:46:49.234Z,3.50
2023-03-12T19:49:18.025Z,3.50
2023-03-12T19:51:47.134Z,3.50
2023-03-12T19:54:15.707Z,3.50
2023-03-12T19:56:43.988Z,3.50
2023-03-12T19:59:12.188Z,3.40
2023-03-12T20:01:41.593Z,3.40
2023-03-12T20:04:11.823Z,3.40
2023-03-12T20:06:40.776Z,3.30
2023-03-12T20:09:11.311Z,3.30
2023-03-12T20:11:39.899Z,3.30
2023-03-12T20:14:11.199Z,3.20
2023-03-12T20:16:40.079Z,3.20
2023-03-12T20:19:08.598Z,3.20
2023-03-12T20:21:37.302Z,3.20
2023-03-12T20:24:06.290Z,3.10
2023-03-12T20:26:34.806Z,3.10
2023-03-12T20:29:23.768Z,3.10
2023-03-12T20:31:56.833Z,3.10
2023-03-12T20:34:28.164Z,3.10
2023-03-12T20:36:56.547Z,3.10
2023-03-12T20:39:25.021Z,3.10
2023-03-12T20:41:53.308Z,3.10
2023-03-12T20:44:21.390Z,2.40
2023-03-12T20:46:48.748Z,3.00
2023-03-12T20:49:17.414Z,3.10
2023-03-12T20:51:46.637Z,3.10
2023-03-12T20:54:17.953Z,3.10
2023-03-12T20:56:46.431Z,3.00
2023-03-12T20:59:14.991Z,3.00
2023-03-12T21:01:50.252Z,3.00
2023-03-12T21:04:19.173Z,3.00
2023-03-12T21:06:47.885Z,3.00
2023-03-12T21:09:15.927Z,2.90
2023-03-12T21:11:44.950Z,3.00
2023-03-12T21:14:12.548Z,3.00
2023-03-12T21:16:43.623Z,3.00
2023-03-12T21:19:11.409Z,3.00
2023-03-12T21:21:39.433Z,2.90
2023-03-12T21:24:08.069Z,3.00
2023-03-12T21:26:37.453Z,3.00
2023-03-12T21:29:05.984Z,2.90
2023-03-12T21:31:33.575Z,3.00
2023-03-12T21:34:01.125Z,3.00
2023-03-12T21:36:28.765Z,3.00
2023-03-12T21:38:56.174Z,2.90
2023-03-12T21:41:23.835Z,3.00
2023-03-12T21:43:51.229Z,2.90
2023-03-12T21:46:20.485Z,2.90
2023-03-12T21:48:48.480Z,3.00
2023-03-12T21:51:17.683Z,2.90
2023-03-12T21:53:45.202Z,3.00
2023-03-12T21:56:13.175Z,2.90
2023-03-12T21:58:40.382Z,3.00
2023-03-12T22:01:09.168Z,3.10
2023-03-12T22:03:37.508Z,3.10
2023-03-12T22:06:05.979Z,3.10
2023-03-12T22:08:34.120Z,3.10
2023-03-12T22:11:01.600Z,3.10
2023-03-12T22:13:28.793Z,3.10
2023-03-12T22:15:58.902Z,3.10
2023-03-12T22:18:27.424Z,3.20
2023-03-12T22:20:56.837Z,3.10
2023-03-12T22:23:24.947Z,3.20
2023-03-12T22:25:52.370Z,3.20
2023-03-12T22:28:20.267Z,3.20
2023-03-12T22:30:47.681Z,3.20
2023-03-12T22:33:14.787Z,3.20
2023-03-12T22:35:48.563Z,3.10
2023-03-12T22:38:16.008Z,3.20
2023-03-12T22:40:43.507Z,3.20
2023-03-12T22:43:10.839Z,2.50
2023-03-12T22:45:38.330Z,3.30
2023-03-12T22:48:05.792Z,3.30
2023-03-12T22:50:33.518Z,3.30
2023-03-12T22:53:00.952Z,3.20
2023-03-12T22:55:28.167Z,3.30
2023-03-12T22:57:55.269Z,3.30
2023-03-12T23:00:23.180Z,3.30
2023-03-12T23:02:50.759Z,3.30
2023-03-12T23:05:18.139Z,3.40
2023-03-12T23:07:45.505Z,3.40
2023-03-12T23:10:13.183Z,3.40
2023-03-12T23:12:40.309Z,3.40
2023-03-12T23:15:07.967Z,3.50
2023-03-12T23:17:35.307Z,3.50
2023-03-12T23:20:03.046Z,3.50
2023-03-12T23:22:30.261Z,3.60
2023-03-12T23:24:57.465Z,3.50
2023-03-12T23:27:24.889Z,3.60
2023-03-12T23:29:52.024Z,3.60
2023-03-12T23:32:19.325Z,3.60
2023-03-12T23:34:46.550Z,3.70
2023-03-12T23:37:14.456Z,3.60
2023-03-12T23:39:53.972Z,3.60
2023-03-12T23:42:22.371Z,3.70
2023-03-12T23:44:49.510Z,3.70
2023-03-12T23:47:16.694Z,3.80
2023-03-12T23:49:43.865Z,3.70
2023-03-12T23:52:11.037Z,3.70
2023-03-12T23:54:38.171Z,3.70
2023-03-12T23:57:05.447Z,3.80
2023-03-12T23:59:32.552Z,3.80
